ADDS METAR Data INFO
IDs: Format: Raw Decoded Include TAF

Data at: 1530 UTC 18 Jun 2018

KOFK 181528Z AUTO 06004KT 10SM BKN012 24/22 A2994 RMK AO2 T02390217
KOFK 181456Z AUTO 35004KT 10SM OVC008 23/21 A2994 RMK AO2 CIG 007V011 SLP127 T02280211 53003
KOFK 181437Z AUTO 02003KT 10SM BKN006 BKN011 23/21 A2995 RMK AO2 T02280211
KOFK 181356Z AUTO 08004KT 10SM SCT006 22/21 A2994 RMK AO2 SLP126 T02220211
KOFK 181348Z AUTO 10003KT 10SM FEW006 22/21 A2994 RMK AO2 T02170211
KOFK 181256Z AUTO 10004KT 10SM FEW060 21/21 A2993 RMK AO2 SLP123 T02110206
KOFK 181156Z AUTO 11004KT 10SM BKN100 21/21 A2994 RMK AO2 RAE31 SLP122 P0002 60036 70050 T02060206 10211 20206 51007
KOFK 181056Z AUTO 11006KT 5SM RA BR FEW060 BKN090 OVC110 21/21 A2993 RMK AO2 RAB12 SLP120 P0014 T02060206
KOFK 181041Z AUTO 12008KT 4SM RA BR FEW041 BKN055 OVC095 21/21 A2993 RMK AO2 RAB12 P0011 T02060206
KOFK 181031Z AUTO 13008KT 2 1/2SM +RA BR FEW039 BKN048 OVC100 21/21 A2994 RMK AO2 RAB12 P0008 T02060206
KOFK 180956Z AUTO 12004KT 10SM BKN065 OVC110 21/21 A2992 RMK AO2 RAB41E56 SLP118 P0000 T02060206
KOFK 180856Z AUTO 11005KT 10SM BKN065 OVC080 21/21 A2991 RMK AO2 RAB24E33 SLP115 P0000 60020 T02110206 58000
KOFK 180756Z AUTO 05006KT 10SM FEW005 OVC060 21/21 A2992 RMK AO2 RAE49 SLP118 P0019 T02060206
KOFK 180741Z AUTO 05006KT 6SM -RA BR FEW008 SCT034 OVC060 21/21 A2992 RMK AO2 P0019 T02060206
KOFK 180734Z AUTO 03006KT 2SM RA BR FEW011 BKN034 OVC060 21/21 A2993 RMK AO2 P0017 T02060206
KOFK 180727Z AUTO 35006KT 1 3/4SM +RA BR SCT009 BKN029 OVC043 21/21 A2993 RMK AO2 P0007 T02060206
KOFK 180723Z AUTO 32006KT 2 1/2SM RA BR SCT008 BKN031 OVC060 21/21 A2994 RMK AO2 P0001 T02110206
KOFK 180714Z AUTO 34007KT 10SM -RA SCT008 BKN011 OVC060 21/21 A2993 RMK AO2 P0000 T02110206
KOFK 180706Z AUTO 30007KT 10SM -RA SCT006 OVC065 21/21 A2994 RMK AO2 P0000 T02110206
KOFK 180656Z AUTO 31004KT 8SM -RA FEW050 OVC065 21/21 A2993 RMK AO2 SLP122 P0001 T02110206
KOFK 180606Z AUTO 32003KT 10SM -RA SCT007 BKN090 OVC110 21/21 A2992 RMK AO2 P0001 T02110206
KOFK 180556Z AUTO 34004KT 8SM -RA FEW049 BKN100 OVC120 21/21 A2991 RMK AO2 SLP117 P0012 60014 T02110206 10311 20211 403280211 51020
KOFK 180538Z AUTO VRB03KT 3SM -RA BR SCT042 BKN060 OVC075 21/21 A2991 RMK AO2 P0012 T02110206
KOFK 180529Z AUTO 00000KT 1 3/4SM +RA BR SCT037 BKN050 OVC075 21/21 A2992 RMK AO2 P0005 T02110206
KOFK 180456Z AUTO 36004KT 10SM -RA FEW060 BKN070 OVC090 21/20 A2990 RMK AO2 RAB05 SLP113 P0002 T02110200
KOFK 180356Z AUTO 36012KT 10SM BKN075 OVC090 23/19 A2989 RMK AO2 WSHFT 0247 SLP108 T02280194
KOFK 180307Z AUTO 02014KT 10SM BKN070 OVC095 24/20 A2986 RMK AO2 WSHFT 0247 T02440200
KOFK 180256Z AUTO 01013KT 10SM BKN070 BKN095 26/19 A2985 RMK AO2 SLP093 T02560194 53024
KOFK 180156Z AUTO 19011KT 10SM CLR 29/20 A2979 RMK AO2 LTG DSNT NW SLP071 T02890200
KOFK 180056Z AUTO 17011KT 10SM BKN075 30/22 A2978 RMK AO2 SLP067 T03000217
KOFK 172356Z AUTO 17008KT 10SM FEW065 31/22 A2978 RMK AO2 SLP067 T03110217 10328 20272 56017
KOFK 172256Z AUTO 18010G18KT 10SM BKN060 33/22 A2979 RMK AO2 SLP069 T03280217
KOFK 172156Z AUTO 17013G23KT 10SM FEW060 31/21 A2980 RMK AO2 SLP073 T03110211
KOFK 172056Z AUTO 17011G22KT 10SM SCT040 31/22 A2983 RMK AO2 PK WND 19029/2004 SLP084 T03060222 58004
KOFK 171956Z AUTO 17019G27KT 10SM FEW034 SCT080 29/21 A2983 RMK AO2 PK WND 17028/1906 SLP085 T02940211
KOFK 171856Z AUTO 16015G22KT 10SM BKN075 BKN110 28/22 A2984 RMK AO2 PK WND 17026/1802 SLP090 T02830217
KOFK 171854Z AUTO 15016G22KT 10SM BKN075 BKN110 29/22 A2984 RMK AO2 PK WND 17026/1802
KOFK 171845Z AUTO 15014G19KT 2 1/2SM HZ FEW080 SCT110 28/22 A2984 RMK AO2 PK WND 17026/1802 T02780217
KOFK 171756Z AUTO 17015G22KT 10SM SCT075 BKN100 27/21 A2986 RMK AO2 RAB1657E06 SLP096 P0000 60000 T02720206 10283 20244 51009
KOFK 171656Z AUTO 18013G17KT 10SM FEW045 SCT090 BKN110 26/22 A2985 RMK AO2 RAB04E43 SLP094 P0000 T02560217
KOFK 171556Z AUTO 19013G20KT 10SM CLR 27/20 A2986 RMK AO2 SLP094 T02720200
KOFK 171456Z AUTO 20011KT 10SM CLR 28/19 A2983 RMK AO2 SLP087 T02780194 53004
KOFK 171356Z AUTO 19014KT 10SM FEW100 27/21 A2982 RMK AO2 SLP082 T02720206
KOFK 171256Z AUTO 19014G21KT 10SM CLR 26/20 A2981 RMK AO2 SLP076 T02610200
KOFK 171156Z AUTO 18011KT 10SM OVC110 24/20 A2982 RMK AO2 SLP082 T02440200 10272 20239 53018
KOFK 171056Z AUTO 17011KT 10SM CLR 24/20 A2980 RMK AO2 SLP074 T02390200
KOFK 170956Z AUTO 18012KT 10SM CLR 24/20 A2978 RMK AO2 SLP067 T02440200
KOFK 170856Z AUTO 18012KT 10SM CLR 25/20 A2977 RMK AO2 SLP061 T02500200 55004
KOFK 170756Z AUTO 18015G24KT 10SM CLR 26/20 A2976 RMK AO2 PK WND 18028/0723 SLP060 T02610200
KOFK 170656Z AUTO 18013G26KT 10SM CLR 27/20 A2977 RMK AO2 PK WND 17026/0649 SLP062 T02670200
KOFK 170556Z AUTO 17014G22KT 10SM CLR 27/20 A2978 RMK AO2 SLP065 T02720200 10328 20267 403560250 50022
KOFK 170456Z AUTO 16011KT 10SM CLR 27/19 A2978 RMK AO2 PRESRR SLP066 T02720194
KOFK 170356Z AUTO 16008KT 10SM CLR 27/19 A2974 RMK AO2 SLP053 T02720189